Country
Station

 

Weather  for  Warszawa-Okecie  -  Poland    Poland

  
-2 °C (28 °F)
    
 
 

Current METAR for Warszawa-Okecie is :

EPWA 210830Z 27006KT 240V300 3600 -SN BR BKN006 M02/M03 Q1022 NOS

 

This is a report for Warszawa-Okecie - Poland.
 
The report was made a moment ago, at 08:30 UTC .
The wind was blowing at a speed of 3.1 meters per second (6.9 miles per hour) from west (270°), varying between west/southwest (240°) and west/northwest (300°).
 
The temperature was -2 °C (28 °F), with a dew-point at -3 °C (27 °F).
The temperature felt like -6 °C (21 °F).
 
The atmospheric pressure was 1022 hPa (30.18 inHg).
The relative humidity was 92.8%.
 
There were broken clouds at a height of 183 meters (600 feet).
 
The overall visibility was 3600 meter (11811 feet).
 
Currently light snow plus mist.

 
 
 
 

Country :   A   B   C   D   E   F   G   H   I   J   K   L   M   N   O   P   Q   R   S   T   U   V   W   Y   Z

 

Site Info  |  Disclaimer  |  Credits  |  Privacy
Contact us  |  Add to favorites
© 2013-2019 METARs - All rights reserved